createdAt,value
2018-09-20T00:01:31.029Z,95.30
2018-09-20T00:03:59.241Z,95.80
2018-09-20T00:06:27.401Z,96.10
2018-09-20T00:08:55.613Z,95.70
2018-09-20T00:11:23.950Z,95.70
2018-09-20T00:13:52.142Z,95.10
2018-09-20T00:16:20.348Z,95.10
2018-09-20T00:18:48.531Z,95.90
2018-09-20T00:21:16.734Z,95.80
2018-09-20T00:23:44.920Z,95.90
2018-09-20T00:26:13.147Z,96.20
2018-09-20T00:28:41.325Z,96.00
2018-09-20T00:31:09.512Z,96.00
2018-09-20T00:33:37.701Z,95.90
2018-09-20T00:36:06.118Z,96.10
2018-09-20T00:38:34.309Z,96.00
2018-09-20T00:41:02.490Z,95.70
2018-09-20T00:43:30.648Z,95.90
2018-09-20T00:45:58.877Z,95.90
2018-09-20T00:48:27.066Z,95.70
2018-09-20T00:50:55.298Z,95.50
2018-09-20T00:53:23.501Z,95.40
2018-09-20T00:55:51.677Z,95.70
2018-09-20T00:58:19.878Z,95.70
2018-09-20T01:00:48.084Z,95.70
2018-09-20T01:03:16.340Z,95.60
2018-09-20T01:05:44.509Z,95.90
2018-09-20T01:08:12.705Z,96.50
2018-09-20T01:10:40.965Z,97.00
2018-09-20T01:13:09.164Z,96.80
2018-09-20T01:15:37.372Z,97.10
2018-09-20T01:18:05.724Z,97.20
2018-09-20T01:20:33.936Z,97.60
2018-09-20T01:23:02.101Z,97.80
2018-09-20T01:25:30.345Z,97.80
2018-09-20T01:27:58.523Z,98.00
2018-09-20T01:30:26.729Z,98.10
2018-09-20T01:32:54.941Z,98.20
2018-09-20T01:35:23.131Z,97.90
2018-09-20T01:37:51.345Z,97.90
2018-09-20T01:40:19.535Z,98.30
2018-09-20T01:42:47.738Z,98.40
2018-09-20T01:45:15.949Z,98.10
2018-09-20T01:47:44.121Z,98.20
2018-09-20T01:50:12.336Z,98.30
2018-09-20T01:52:40.492Z,98.20
2018-09-20T01:55:08.720Z,97.90
2018-09-20T01:57:36.889Z,97.90
2018-09-20T02:00:05.384Z,98.00
2018-09-20T02:02:33.573Z,98.00
2018-09-20T02:05:02.105Z,97.90
2018-09-20T02:07:30.306Z,97.90
2018-09-20T02:09:58.517Z,97.80
2018-09-20T02:12:26.713Z,98.20
2018-09-20T02:14:54.925Z,98.20
2018-09-20T02:17:23.093Z,97.90
2018-09-20T02:19:51.300Z,97.80
2018-09-20T02:22:19.465Z,98.00
2018-09-20T02:24:47.677Z,97.90
2018-09-20T02:27:15.843Z,98.10
2018-09-20T02:29:44.097Z,98.00
2018-09-20T02:32:12.293Z,98.00
2018-09-20T02:34:40.485Z,98.30
2018-09-20T02:37:08.723Z,98.50
2018-09-20T02:39:36.936Z,97.80
2018-09-20T02:42:05.124Z,97.50
2018-09-20T02:44:33.334Z,97.70
2018-09-20T02:47:01.521Z,97.70
2018-09-20T02:49:29.716Z,97.80
2018-09-20T02:51:57.909Z,98.00
2018-09-20T02:54:26.069Z,97.90
2018-09-20T02:56:54.345Z,97.60
2018-09-20T02:59:22.596Z,96.90
2018-09-20T03:01:50.893Z,96.70
2018-09-20T03:04:19.136Z,97.80
2018-09-20T03:06:47.312Z,97.90
2018-09-20T03:09:15.525Z,97.70
2018-09-20T03:11:43.690Z,97.30
2018-09-20T03:14:11.890Z,97.90
2018-09-20T03:16:40.093Z,97.40
2018-09-20T03:19:08.285Z,97.50
2018-09-20T03:21:36.505Z,97.50
2018-09-20T03:24:04.710Z,97.10
2018-09-20T03:26:33.030Z,96.70
2018-09-20T03:29:01.504Z,96.70
2018-09-20T03:31:29.688Z,96.60
2018-09-20T03:33:57.997Z,96.30
2018-09-20T03:36:26.176Z,96.40
2018-09-20T03:38:54.371Z,96.40
2018-09-20T03:41:22.572Z,97.00
2018-09-20T03:43:50.778Z,96.70
2018-09-20T03:46:19.021Z,96.50
2018-09-20T03:48:47.230Z,96.40
2018-09-20T03:51:15.442Z,96.40
2018-09-20T03:53:43.622Z,96.50
2018-09-20T03:56:11.822Z,97.00
2018-09-20T03:58:40.033Z,97.10
2018-09-20T04:01:08.248Z,96.90
2018-09-20T04:03:36.494Z,96.80
2018-09-20T04:06:04.701Z,97.10
2018-09-20T04:08:32.898Z,96.80
2018-09-20T04:11:01.073Z,96.70
2018-09-20T04:13:29.279Z,97.30
2018-09-20T04:15:57.437Z,96.90
2018-09-20T04:18:25.645Z,96.90
2018-09-20T04:20:53.861Z,96.60
2018-09-20T04:23:22.029Z,96.40
2018-09-20T04:25:50.225Z,96.00
2018-09-20T04:28:18.381Z,97.10
2018-09-20T04:30:46.624Z,97.50
2018-09-20T04:33:14.860Z,97.40
2018-09-20T04:35:43.021Z,97.90
2018-09-20T04:38:11.237Z,97.70
2018-09-20T04:40:39.417Z,98.00
2018-09-20T04:43:07.629Z,97.90
2018-09-20T04:45:35.805Z,97.80
2018-09-20T04:48:04.053Z,97.60
2018-09-20T04:50:32.310Z,97.80
2018-09-20T04:53:00.582Z,97.90
2018-09-20T04:55:28.785Z,97.60
2018-09-20T04:57:56.985Z,97.70
2018-09-20T05:00:25.185Z,97.60
2018-09-20T05:02:53.396Z,97.60
2018-09-20T05:05:21.645Z,97.50
2018-09-20T05:07:49.844Z,97.70
2018-09-20T05:10:18.023Z,97.50
2018-09-20T05:12:46.237Z,97.70
2018-09-20T05:15:14.446Z,98.10
2018-09-20T05:17:42.675Z,98.50
2018-09-20T05:20:10.922Z,98.50
2018-09-20T05:22:39.093Z,98.50
2018-09-20T05:25:07.343Z,98.50
2018-09-20T05:27:35.514Z,98.50
2018-09-20T05:30:10.774Z,98.50
2018-09-20T05:32:38.994Z,98.00
2018-09-20T05:35:07.185Z,98.00
2018-09-20T05:37:35.389Z,97.60
2018-09-20T05:40:03.645Z,97.10
2018-09-20T05:42:31.862Z,96.30
2018-09-20T05:45:00.082Z,95.40
2018-09-20T05:47:28.296Z,95.60
2018-09-20T05:49:56.548Z,95.10
2018-09-20T05:52:24.737Z,94.70
2018-09-20T05:54:53.010Z,96.10
2018-09-20T05:57:21.189Z,96.10
2018-09-20T05:59:49.477Z,96.20
2018-09-20T06:02:17.789Z,95.80
2018-09-20T06:04:46.009Z,95.10
2018-09-20T06:07:14.225Z,94.90
2018-09-20T06:09:42.432Z,94.80
2018-09-20T06:12:10.673Z,94.70
2018-09-20T06:14:38.893Z,94.00
2018-09-20T06:17:07.126Z,93.90
2018-09-20T06:19:35.442Z,93.70
2018-09-20T06:22:03.663Z,93.10
2018-09-20T06:24:31.927Z,91.60
2018-09-20T06:27:00.185Z,91.70
2018-09-20T06:29:28.369Z,91.40
2018-09-20T06:31:56.590Z,91.00
2018-09-20T06:34:24.829Z,90.00
2018-09-20T06:36:53.148Z,90.60
2018-09-20T06:39:21.341Z,89.90
2018-09-20T06:41:49.526Z,88.20
2018-09-20T06:44:17.745Z,89.30
2018-09-20T06:46:45.896Z,88.50
2018-09-20T06:49:14.111Z,87.50
2018-09-20T06:51:42.350Z,87.20
2018-09-20T06:54:10.517Z,86.20
2018-09-20T06:56:38.835Z,87.20
2018-09-20T06:59:07.004Z,86.70
2018-09-20T07:01:35.238Z,86.60
2018-09-20T07:04:03.502Z,85.70
2018-09-20T07:06:31.673Z,86.70
2018-09-20T07:08:59.885Z,85.50
2018-09-20T07:11:28.049Z,85.60
2018-09-20T07:13:56.294Z,85.10
2018-09-20T07:16:24.548Z,84.50
2018-09-20T07:18:52.755Z,84.10
2018-09-20T07:21:21.069Z,83.30
2018-09-20T07:23:49.241Z,84.70
2018-09-20T07:26:17.512Z,83.50
2018-09-20T07:28:45.720Z,83.80
2018-09-20T07:31:13.917Z,82.40
2018-09-20T07:33:42.134Z,82.70
2018-09-20T07:36:10.339Z,82.80
2018-09-20T07:38:38.545Z,82.60
2018-09-20T07:41:07.157Z,81.90
2018-09-20T07:43:35.396Z,82.00
2018-09-20T07:46:03.612Z,81.70
2018-09-20T07:48:31.794Z,81.70
2018-09-20T07:51:00.004Z,82.80
2018-09-20T07:53:28.182Z,81.20
2018-09-20T07:55:56.416Z,82.30
2018-09-20T07:58:24.661Z,82.80
2018-09-20T08:00:52.908Z,82.60
2018-09-20T08:03:21.341Z,82.50
2018-09-20T08:05:49.581Z,82.80
2018-09-20T08:08:17.800Z,82.70
2018-09-20T08:10:46.043Z,83.10
2018-09-20T08:13:14.254Z,82.50
2018-09-20T08:15:42.421Z,82.90
2018-09-20T08:18:10.655Z,82.80
2018-09-20T08:20:38.849Z,81.10
2018-09-20T08:23:07.069Z,82.60
2018-09-20T08:25:35.289Z,81.50
2018-09-20T08:28:03.502Z,81.70
2018-09-20T08:30:31.729Z,81.00
2018-09-20T08:32:59.965Z,80.50
2018-09-20T08:35:28.197Z,80.20
2018-09-20T08:37:56.398Z,80.50
2018-09-20T08:40:24.573Z,80.50
2018-09-20T08:42:52.797Z,80.50
2018-09-20T08:45:21.053Z,79.80
2018-09-20T08:47:49.425Z,79.50
2018-09-20T08:50:17.724Z,79.50
2018-09-20T08:52:46.078Z,77.10
2018-09-20T08:55:14.291Z,79.00
2018-09-20T08:57:47.909Z,78.60
2018-09-20T09:00:16.131Z,78.80
2018-09-20T09:02:44.513Z,77.90
2018-09-20T09:05:12.706Z,78.50
2018-09-20T09:07:41.017Z,79.10
2018-09-20T09:10:09.253Z,81.10
2018-09-20T09:12:37.470Z,80.10
2018-09-20T09:15:05.754Z,78.70
2018-09-20T09:17:33.942Z,78.20
2018-09-20T09:20:02.222Z,78.40
2018-09-20T09:22:30.410Z,79.10
2018-09-20T09:24:58.633Z,77.90
2018-09-20T09:27:26.847Z,77.40
2018-09-20T09:29:55.046Z,76.60
2018-09-20T09:32:23.281Z,76.10
2018-09-20T09:34:51.449Z,76.90
2018-09-20T09:37:19.661Z,74.70
2018-09-20T09:39:47.902Z,73.00
2018-09-20T09:42:16.292Z,73.60
2018-09-20T09:44:44.469Z,73.50
2018-09-20T09:47:12.663Z,72.70
2018-09-20T09:49:41.022Z,72.90
2018-09-20T09:52:09.207Z,72.40
2018-09-20T09:54:37.455Z,73.10
2018-09-20T09:57:06.012Z,69.50
2018-09-20T09:59:34.603Z,70.50
2018-09-20T10:02:03.846Z,71.60
2018-09-20T10:04:32.176Z,72.50
2018-09-20T10:07:00.482Z,72.30
2018-09-20T10:09:28.766Z,71.50
2018-09-20T10:11:57.650Z,73.30
2018-09-20T10:14:25.982Z,72.20
2018-09-20T10:16:54.265Z,73.30
2018-09-20T10:19:22.480Z,73.40
2018-09-20T10:21:51.608Z,72.50
2018-09-20T10:24:19.817Z,72.30
2018-09-20T10:26:48.052Z,72.60
2018-09-20T10:29:16.335Z,72.40
2018-09-20T10:31:44.587Z,72.30
2018-09-20T10:34:12.809Z,73.00
2018-09-20T10:36:41.069Z,72.80
2018-09-20T10:39:11.305Z,73.70
2018-09-20T10:41:39.508Z,72.90
2018-09-20T10:44:07.833Z,70.30
2018-09-20T10:46:36.061Z,71.00
2018-09-20T10:49:04.424Z,69.70
2018-09-20T10:51:32.974Z,71.20
2018-09-20T10:54:01.645Z,70.20
2018-09-20T10:56:30.224Z,71.10
2018-09-20T10:58:58.458Z,69.10
2018-09-20T11:01:26.676Z,69.90
2018-09-20T11:03:54.845Z,70.20
2018-09-20T11:06:23.095Z,69.20
2018-09-20T11:08:51.626Z,69.20
2018-09-20T11:11:19.861Z,69.60
2018-09-20T11:13:48.025Z,68.70
2018-09-20T11:16:16.249Z,69.30
2018-09-20T11:18:44.416Z,69.20
2018-09-20T11:21:12.632Z,66.30
2018-09-20T11:23:40.853Z,66.20
2018-09-20T11:26:09.041Z,65.00
2018-09-20T11:28:37.273Z,65.60
2018-09-20T11:31:05.490Z,64.50
2018-09-20T11:33:33.690Z,66.80
2018-09-20T11:36:01.925Z,65.30
2018-09-20T11:38:30.086Z,66.60
2018-09-20T11:40:58.293Z,62.70
2018-09-20T11:43:26.492Z,65.40
2018-09-20T11:45:54.729Z,62.80
2018-09-20T11:48:22.979Z,63.50
2018-09-20T11:50:51.197Z,63.60
2018-09-20T11:53:19.448Z,63.30
2018-09-20T11:55:47.645Z,63.90
2018-09-20T11:58:15.881Z,63.50
2018-09-20T12:00:44.054Z,64.00
2018-09-20T12:03:12.294Z,63.60
2018-09-20T12:05:40.549Z,61.70
2018-09-20T12:08:08.826Z,60.90
2018-09-20T12:10:37.058Z,62.20
2018-09-20T12:13:05.266Z,62.60
2018-09-20T12:15:33.478Z,62.90
2018-09-20T12:18:01.714Z,63.30
2018-09-20T12:20:29.914Z,64.40
2018-09-20T12:22:58.157Z,62.20
2018-09-20T12:25:26.325Z,63.60
2018-09-20T12:27:54.719Z,60.90
2018-09-20T12:30:22.939Z,62.40
2018-09-20T12:32:51.228Z,62.60
2018-09-20T12:35:19.496Z,61.50
2018-09-20T12:37:47.678Z,60.70
2018-09-20T12:40:15.922Z,61.30
2018-09-20T12:42:44.168Z,61.10
2018-09-20T12:45:12.394Z,60.50
2018-09-20T12:47:40.631Z,58.70
2018-09-20T12:50:08.874Z,58.40
2018-09-20T12:52:37.125Z,59.00
2018-09-20T12:55:05.379Z,58.40
2018-09-20T12:57:33.637Z,58.30
2018-09-20T13:00:01.843Z,57.50
2018-09-20T13:02:30.066Z,59.80
2018-09-20T13:04:58.297Z,60.60
2018-09-20T13:07:26.530Z,58.60
2018-09-20T13:09:54.769Z,59.40
2018-09-20T13:12:23.002Z,59.90
2018-09-20T13:14:51.238Z,60.80
2018-09-20T13:17:19.489Z,61.70
2018-09-20T13:19:47.733Z,61.00
2018-09-20T13:22:15.950Z,61.50
2018-09-20T13:24:44.166Z,62.60
2018-09-20T13:27:12.394Z,62.10
2018-09-20T13:29:40.590Z,62.10
2018-09-20T13:32:08.806Z,61.80
2018-09-20T13:34:36.980Z,60.30
2018-09-20T13:37:05.324Z,59.90
2018-09-20T13:39:33.601Z,60.90
2018-09-20T13:42:01.875Z,60.20
2018-09-20T13:44:30.057Z,60.50
2018-09-20T13:46:58.314Z,58.80
2018-09-20T13:49:26.542Z,59.80
2018-09-20T13:51:54.736Z,59.30
2018-09-20T13:54:22.957Z,59.00
2018-09-20T13:57:33.897Z,60.20
2018-09-20T14:00:02.081Z,59.00
2018-09-20T14:02:30.313Z,60.40
2018-09-20T14:04:58.534Z,59.40
2018-09-20T14:07:26.809Z,60.40
2018-09-20T14:09:55.080Z,58.80
2018-09-20T14:12:23.257Z,59.20
2018-09-20T14:14:51.518Z,58.90
2018-09-20T14:17:19.800Z,59.90
2018-09-20T14:19:48.160Z,61.70
2018-09-20T14:22:16.387Z,59.60
2018-09-20T14:24:44.618Z,60.10
2018-09-20T14:27:12.853Z,59.60
2018-09-20T14:29:41.145Z,61.20
2018-09-20T14:32:12.789Z,61.70
2018-09-20T14:34:41.064Z,62.70
2018-09-20T14:37:09.262Z,60.80
2018-09-20T14:39:37.641Z,60.80
2018-09-20T14:42:05.934Z,62.10
2018-09-20T14:44:35.990Z,62.30
2018-09-20T14:47:04.218Z,61.00
2018-09-20T14:49:32.475Z,60.50
2018-09-20T14:52:00.737Z,61.00
2018-09-20T14:54:28.934Z,61.70
2018-09-20T14:56:57.281Z,63.20
2018-09-20T14:59:25.495Z,61.50
2018-09-20T15:01:53.734Z,61.90
2018-09-20T15:04:21.986Z,63.10
2018-09-20T15:06:50.531Z,63.60
2018-09-20T15:09:18.809Z,64.90
2018-09-20T15:11:47.037Z,65.30
2018-09-20T15:14:15.266Z,65.10
2018-09-20T15:16:43.465Z,64.80
2018-09-20T15:19:11.734Z,63.80
2018-09-20T15:21:39.972Z,63.10
2018-09-20T15:24:08.167Z,63.00
2018-09-20T15:26:36.528Z,64.00
2018-09-20T15:29:04.706Z,65.00
2018-09-20T15:31:32.961Z,64.80
2018-09-20T15:34:01.189Z,66.20
2018-09-20T15:36:29.406Z,64.80
2018-09-20T15:38:57.640Z,65.00
2018-09-20T15:41:25.842Z,65.80
2018-09-20T15:43:54.066Z,66.40
2018-09-20T15:46:22.261Z,66.50
2018-09-20T15:48:50.533Z,66.10
2018-09-20T15:51:18.740Z,66.10
2018-09-20T15:53:46.964Z,66.00
2018-09-20T15:56:15.209Z,67.50
2018-09-20T15:58:43.399Z,67.30
2018-09-20T16:01:12.210Z,68.40
2018-09-20T16:03:40.561Z,68.70
2018-09-20T16:06:08.890Z,68.70
2018-09-20T16:08:37.106Z,67.60
2018-09-20T16:11:05.378Z,68.60
2018-09-20T16:13:33.647Z,69.00
2018-09-20T16:16:01.821Z,69.40
2018-09-20T16:18:30.048Z,69.80
2018-09-20T16:20:58.289Z,70.50
2018-09-20T16:23:26.560Z,71.10
2018-09-20T16:25:54.829Z,72.00
2018-09-20T16:28:55.891Z,73.10
2018-09-20T16:33:48.073Z,73.00
2018-09-20T16:36:24.486Z,73.60
2018-09-20T16:38:58.226Z,75.40
2018-09-20T16:41:34.915Z,75.70
2018-09-20T16:44:03.398Z,76.00
2018-09-20T16:46:31.666Z,76.80
2018-09-20T16:48:59.873Z,76.60
2018-09-20T16:51:28.122Z,76.60
2018-09-20T16:53:56.336Z,77.00
2018-09-20T16:56:24.666Z,77.90
2018-09-20T16:58:53.685Z,78.30
2018-09-20T17:01:22.514Z,78.40
2018-09-20T17:03:51.007Z,79.20
2018-09-20T17:06:19.774Z,79.30
2018-09-20T17:08:48.861Z,79.50
2018-09-20T17:11:17.122Z,79.70
2018-09-20T17:13:45.351Z,80.10
2018-09-20T17:16:13.558Z,80.30
2018-09-20T17:18:41.797Z,80.50
2018-09-20T17:21:10.062Z,81.00
2018-09-20T17:23:38.281Z,81.10
2018-09-20T17:26:06.750Z,81.20
2018-09-20T17:28:34.937Z,81.60
2018-09-20T17:31:03.232Z,81.50
2018-09-20T17:33:31.441Z,82.30
2018-09-20T17:35:59.814Z,82.90
2018-09-20T17:38:28.957Z,83.10
2018-09-20T17:41:03.149Z,82.80
2018-09-20T17:43:49.304Z,83.10
2018-09-20T17:46:17.584Z,82.80
2018-09-20T17:48:45.821Z,83.70
2018-09-20T17:51:15.177Z,83.80
2018-09-20T17:53:44.159Z,84.10
2018-09-20T17:56:12.886Z,84.00
2018-09-20T17:58:41.931Z,83.30
2018-09-20T18:01:10.153Z,83.50
2018-09-20T18:03:38.321Z,83.90
2018-09-20T18:06:06.654Z,83.90
2018-09-20T18:08:34.917Z,83.50
2018-09-20T18:11:03.209Z,83.20
2018-09-20T18:13:31.441Z,83.40
2018-09-20T18:15:59.651Z,83.40
2018-09-20T18:18:27.986Z,83.80
2018-09-20T18:20:56.151Z,84.20
2018-09-20T18:23:24.353Z,84.20
2018-09-20T18:25:52.610Z,84.00
2018-09-20T18:28:20.809Z,84.00
2018-09-20T18:30:49.733Z,83.80
2018-09-20T18:33:17.918Z,83.70
2018-09-20T18:35:46.158Z,83.90
2018-09-20T18:38:16.021Z,83.60
2018-09-20T18:40:44.185Z,83.70
2018-09-20T18:43:12.411Z,83.90
2018-09-20T18:45:40.584Z,83.60
2018-09-20T18:48:08.897Z,83.50
2018-09-20T18:50:37.693Z,83.70
2018-09-20T18:53:06.966Z,83.60
2018-09-20T18:55:36.163Z,83.90
2018-09-20T18:58:04.434Z,84.60
2018-09-20T19:00:32.704Z,85.50
2018-09-20T19:03:01.265Z,86.00
2018-09-20T19:05:30.173Z,86.60
2018-09-20T19:07:59.195Z,86.50
2018-09-20T19:10:27.547Z,86.50
2018-09-20T19:12:55.929Z,86.40
2018-09-20T19:15:24.300Z,86.30
2018-09-20T19:17:52.672Z,86.50
2018-09-20T19:20:20.878Z,86.80
2018-09-20T19:22:49.121Z,86.60
2018-09-20T19:25:17.898Z,86.30
2018-09-20T19:27:46.865Z,86.10
2018-09-20T19:30:15.089Z,86.30
2018-09-20T19:32:43.269Z,87.00
2018-09-20T19:35:12.474Z,86.90
2018-09-20T19:37:40.693Z,87.30
2018-09-20T19:40:08.897Z,87.40
2018-09-20T19:42:37.121Z,87.30
2018-09-20T19:45:05.380Z,87.30
2018-09-20T19:47:33.588Z,87.20
2018-09-20T19:50:01.829Z,87.70
2018-09-20T19:52:30.064Z,87.70
2018-09-20T19:54:58.294Z,88.10
2018-09-20T19:57:26.493Z,87.80
2018-09-20T19:59:54.714Z,88.10
2018-09-20T20:02:22.909Z,88.60
2018-09-20T20:04:51.149Z,88.20
2018-09-20T20:07:19.334Z,88.00
2018-09-20T20:09:47.529Z,87.80
2018-09-20T20:12:15.746Z,88.20
2018-09-20T20:14:43.978Z,88.00
2018-09-20T20:17:12.221Z,87.80
2018-09-20T20:19:40.588Z,88.00
2018-09-20T20:22:08.833Z,88.20
2018-09-20T20:24:38.408Z,87.90
2018-09-20T20:27:06.578Z,87.80
2018-09-20T20:29:34.830Z,87.70
2018-09-20T20:32:03.072Z,87.80
2018-09-20T20:34:31.481Z,87.70
2018-09-20T20:36:59.730Z,87.80
2018-09-20T20:39:27.898Z,87.70
2018-09-20T20:41:56.102Z,87.90
2018-09-20T20:44:24.274Z,88.40
2018-09-20T20:46:52.513Z,88.60
2018-09-20T20:49:20.741Z,88.50
2018-09-20T20:51:48.959Z,89.00
2018-09-20T20:54:17.193Z,89.40
2018-09-20T20:56:45.413Z,89.90
2018-09-20T20:59:13.635Z,90.30
2018-09-20T21:01:41.873Z,90.60
2018-09-20T21:04:10.086Z,90.50
2018-09-20T21:06:38.276Z,90.40
2018-09-20T21:09:07.975Z,90.40
2018-09-20T21:11:36.226Z,90.50
2018-09-20T21:14:04.426Z,90.70
2018-09-20T21:16:32.684Z,91.10
2018-09-20T21:19:00.926Z,90.90
2018-09-20T21:21:29.514Z,91.50
2018-09-20T21:23:57.797Z,91.80
2018-09-20T21:26:25.969Z,92.10
2018-09-20T21:28:54.189Z,91.80
2018-09-20T21:31:22.410Z,91.90
2018-09-20T21:33:50.590Z,91.90
2018-09-20T21:36:18.804Z,91.20
2018-09-20T21:38:46.990Z,91.40
2018-09-20T21:41:15.196Z,91.70
2018-09-20T21:43:43.401Z,91.40
2018-09-20T21:46:11.621Z,91.50
2018-09-20T21:48:39.844Z,92.00
2018-09-20T21:51:08.087Z,92.70
2018-09-20T21:53:36.321Z,92.60
2018-09-20T21:56:04.526Z,93.00
2018-09-20T21:58:32.795Z,93.00
2018-09-20T22:01:01.037Z,92.50
2018-09-20T22:03:29.905Z,92.30
2018-09-20T22:05:58.169Z,92.50
2018-09-20T22:08:26.393Z,92.30
2018-09-20T22:10:54.665Z,92.00
2018-09-20T22:13:22.891Z,91.60
2018-09-20T22:15:51.173Z,91.90
2018-09-20T22:18:19.338Z,92.40
2018-09-20T22:20:47.589Z,92.90
2018-09-20T22:23:15.777Z,92.30
2018-09-20T22:25:43.994Z,91.90
2018-09-20T22:28:12.201Z,91.90
2018-09-20T22:30:40.393Z,91.90
2018-09-20T22:33:08.597Z,92.00
2018-09-20T22:35:36.869Z,92.70
2018-09-20T22:38:05.089Z,93.20
2018-09-20T22:40:33.273Z,93.10
2018-09-20T22:43:01.505Z,92.90
2018-09-20T22:45:29.726Z,93.30
2018-09-20T22:47:57.897Z,93.30
2018-09-20T22:50:26.093Z,93.40
2018-09-20T22:52:54.253Z,93.20
2018-09-20T22:55:22.506Z,93.40
2018-09-20T22:57:50.709Z,93.00
2018-09-20T23:00:23.548Z,93.30
2018-09-20T23:02:53.074Z,92.80
2018-09-20T23:05:21.285Z,92.50
2018-09-20T23:07:49.509Z,91.90
2018-09-20T23:10:17.697Z,92.20
2018-09-20T23:12:46.140Z,93.20
2018-09-20T23:15:14.326Z,93.70
2018-09-20T23:17:42.537Z,93.90
2018-09-20T23:20:10.730Z,93.90
2018-09-20T23:22:38.927Z,94.10
2018-09-20T23:25:07.256Z,94.30
2018-09-20T23:27:35.513Z,93.90
2018-09-20T23:30:03.797Z,94.00
2018-09-20T23:32:31.975Z,93.60
2018-09-20T23:35:00.177Z,93.90
2018-09-20T23:37:28.384Z,94.00
2018-09-20T23:39:56.577Z,94.40
2018-09-20T23:42:24.777Z,94.50
2018-09-20T23:44:52.936Z,94.50
2018-09-20T23:47:21.125Z,95.60
2018-09-20T23:49:49.398Z,95.70
2018-09-20T23:52:17.573Z,95.50
2018-09-20T23:54:45.785Z,96.00
2018-09-20T23:57:13.965Z,96.40
2018-09-20T23:59:42.161Z,96.60
